sensor_id;sensor_type;location;lat;lon;timestamp;P1;durP1;ratioP1;P2;durP2;ratioP2
75798;SDS011;70933;44.692;37.776;2023-08-06T00:00:54;3.67;;;2.60;;
75798;SDS011;70933;44.692;37.776;2023-08-06T00:02:01;4.15;;;2.83;;
75798;SDS011;70933;44.692;37.776;2023-08-06T00:03:08;4.65;;;3.17;;
75798;SDS011;70933;44.692;37.776;2023-08-06T00:04:14;3.50;;;2.90;;
75798;SDS011;70933;44.692;37.776;2023-08-06T00:05:21;4.40;;;2.83;;
75798;SDS011;70933;44.692;37.776;2023-08-06T00:06:28;4.55;;;2.80;;
75798;SDS011;70933;44.692;37.776;2023-08-06T00:07:35;5.93;;;2.80;;
75798;SDS011;70933;44.692;37.776;2023-08-06T00:08:41;3.35;;;2.47;;
75798;SDS011;70933;44.692;37.776;2023-08-06T00:09:48;6.97;;;3.13;;
75798;SDS011;70933;44.692;37.776;2023-08-06T00:10:55;4.13;;;3.00;;
75798;SDS011;70933;44.692;37.776;2023-08-06T00:12:02;5.07;;;2.72;;
75798;SDS011;70933;44.692;37.776;2023-08-06T00:13:09;4.45;;;2.63;;
75798;SDS011;70933;44.692;37.776;2023-08-06T00:14:15;3.63;;;2.90;;
75798;SDS011;70933;44.692;37.776;2023-08-06T00:15:23;5.45;;;3.33;;
75798;SDS011;70933;44.692;37.776;2023-08-06T00:16:30;4.18;;;3.15;;
75798;SDS011;70933;44.692;37.776;2023-08-06T00:17:37;4.75;;;3.28;;
75798;SDS011;70933;44.692;37.776;2023-08-06T00:18:44;4.30;;;2.95;;
75798;SDS011;70933;44.692;37.776;2023-08-06T00:19:50;3.90;;;2.67;;
75798;SDS011;70933;44.692;37.776;2023-08-06T00:20:57;3.92;;;3.05;;
75798;SDS011;70933;44.692;37.776;2023-08-06T00:22:04;5.55;;;3.10;;
75798;SDS011;70933;44.692;37.776;2023-08-06T00:23:11;4.68;;;2.58;;
75798;SDS011;70933;44.692;37.776;2023-08-06T00:24:17;4.25;;;2.80;;
75798;SDS011;70933;44.692;37.776;2023-08-06T00:25:24;5.22;;;3.20;;
75798;SDS011;70933;44.692;37.776;2023-08-06T00:26:31;5.75;;;3.50;;
75798;SDS011;70933;44.692;37.776;2023-08-06T00:27:38;5.10;;;2.85;;
75798;SDS011;70933;44.692;37.776;2023-08-06T00:28:45;3.33;;;2.72;;
75798;SDS011;70933;44.692;37.776;2023-08-06T00:29:51;4.15;;;2.72;;
75798;SDS011;70933;44.692;37.776;2023-08-06T00:30:58;3.72;;;2.88;;
75798;SDS011;70933;44.692;37.776;2023-08-06T00:32:05;3.75;;;3.30;;
75798;SDS011;70933;44.692;37.776;2023-08-06T00:33:12;4.72;;;3.15;;
75798;SDS011;70933;44.692;37.776;2023-08-06T00:34:19;3.63;;;3.17;;
75798;SDS011;70933;44.692;37.776;2023-08-06T00:35:26;3.50;;;2.83;;
75798;SDS011;70933;44.692;37.776;2023-08-06T00:36:32;5.90;;;3.10;;
75798;SDS011;70933;44.692;37.776;2023-08-06T00:37:40;3.40;;;2.83;;
75798;SDS011;70933;44.692;37.776;2023-08-06T00:38:47;4.68;;;2.70;;
75798;SDS011;70933;44.692;37.776;2023-08-06T00:39:54;3.88;;;2.72;;
75798;SDS011;70933;44.692;37.776;2023-08-06T00:41:01;4.82;;;3.03;;
75798;SDS011;70933;44.692;37.776;2023-08-06T00:42:08;5.38;;;3.38;;
75798;SDS011;70933;44.692;37.776;2023-08-06T00:43:15;5.32;;;2.47;;
75798;SDS011;70933;44.692;37.776;2023-08-06T00:44:21;4.22;;;2.72;;
75798;SDS011;70933;44.692;37.776;2023-08-06T00:45:28;4.90;;;3.03;;
75798;SDS011;70933;44.692;37.776;2023-08-06T00:46:37;3.50;;;2.80;;
75798;SDS011;70933;44.692;37.776;2023-08-06T00:47:44;5.18;;;2.90;;
75798;SDS011;70933;44.692;37.776;2023-08-06T00:48:52;4.05;;;2.83;;
75798;SDS011;70933;44.692;37.776;2023-08-06T00:50:11;4.55;;;3.25;;
75798;SDS011;70933;44.692;37.776;2023-08-06T00:51:18;4.38;;;3.30;;
75798;SDS011;70933;44.692;37.776;2023-08-06T00:52:26;3.97;;;3.15;;
75798;SDS011;70933;44.692;37.776;2023-08-06T00:53:32;4.53;;;3.83;;
75798;SDS011;70933;44.692;37.776;2023-08-06T00:54:39;3.50;;;3.08;;
75798;SDS011;70933;44.692;37.776;2023-08-06T00:55:47;3.13;;;2.83;;
75798;SDS011;70933;44.692;37.776;2023-08-06T00:56:54;3.85;;;2.88;;
75798;SDS011;70933;44.692;37.776;2023-08-06T00:58:02;4.72;;;2.78;;
75798;SDS011;70933;44.692;37.776;2023-08-06T00:59:10;4.97;;;3.30;;
75798;SDS011;70933;44.692;37.776;2023-08-06T01:00:17;4.22;;;3.15;;
75798;SDS011;70933;44.692;37.776;2023-08-06T01:01:25;4.22;;;2.90;;
75798;SDS011;70933;44.692;37.776;2023-08-06T01:02:31;3.88;;;2.97;;
75798;SDS011;70933;44.692;37.776;2023-08-06T01:03:38;3.92;;;3.20;;
75798;SDS011;70933;44.692;37.776;2023-08-06T01:04:45;3.15;;;2.70;;
75798;SDS011;70933;44.692;37.776;2023-08-06T01:05:52;4.88;;;2.92;;
75798;SDS011;70933;44.692;37.776;2023-08-06T01:07:06;4.75;;;3.60;;
75798;SDS011;70933;44.692;37.776;2023-08-06T01:08:40;5.18;;;2.80;;
75798;SDS011;70933;44.692;37.776;2023-08-06T01:11:33;4.22;;;3.22;;
75798;SDS011;70933;44.692;37.776;2023-08-06T01:14:11;3.33;;;2.67;;
75798;SDS011;70933;44.692;37.776;2023-08-06T01:15:46;6.05;;;2.72;;
75798;SDS011;70933;44.692;37.776;2023-08-06T01:16:58;5.78;;;2.75;;
75798;SDS011;70933;44.692;37.776;2023-08-06T01:18:05;5.13;;;2.67;;
75798;SDS011;70933;44.692;37.776;2023-08-06T01:19:18;3.10;;;2.50;;
75798;SDS011;70933;44.692;37.776;2023-08-06T01:20:29;4.57;;;3.65;;
75798;SDS011;70933;44.692;37.776;2023-08-06T01:21:36;5.43;;;2.97;;
75798;SDS011;70933;44.692;37.776;2023-08-06T01:22:43;4.55;;;2.92;;
75798;SDS011;70933;44.692;37.776;2023-08-06T01:23:50;4.03;;;3.22;;
75798;SDS011;70933;44.692;37.776;2023-08-06T01:24:57;4.97;;;3.83;;
75798;SDS011;70933;44.692;37.776;2023-08-06T01:26:06;4.90;;;2.95;;
75798;SDS011;70933;44.692;37.776;2023-08-06T01:30:06;4.28;;;3.08;;
75798;SDS011;70933;44.692;37.776;2023-08-06T01:31:34;5.00;;;2.92;;
75798;SDS011;70933;44.692;37.776;2023-08-06T01:32:44;3.63;;;2.50;;
75798;SDS011;70933;44.692;37.776;2023-08-06T01:33:55;3.65;;;2.30;;
75798;SDS011;70933;44.692;37.776;2023-08-06T01:35:04;3.33;;;3.03;;
75798;SDS011;70933;44.692;37.776;2023-08-06T01:36:11;4.35;;;2.95;;
75798;SDS011;70933;44.692;37.776;2023-08-06T01:37:20;3.72;;;2.67;;
75798;SDS011;70933;44.692;37.776;2023-08-06T01:38:27;4.30;;;2.80;;
75798;SDS011;70933;44.692;37.776;2023-08-06T01:39:34;5.38;;;2.70;;
75798;SDS011;70933;44.692;37.776;2023-08-06T01:40:44;5.38;;;3.22;;
75798;SDS011;70933;44.692;37.776;2023-08-06T01:41:51;4.22;;;2.58;;
75798;SDS011;70933;44.692;37.776;2023-08-06T01:42:57;4.00;;;2.95;;
75798;SDS011;70933;44.692;37.776;2023-08-06T01:44:04;3.90;;;3.10;;
75798;SDS011;70933;44.692;37.776;2023-08-06T01:45:11;4.57;;;2.78;;
75798;SDS011;70933;44.692;37.776;2023-08-06T01:46:18;4.55;;;2.83;;
75798;SDS011;70933;44.692;37.776;2023-08-06T01:47:25;3.30;;;3.00;;
75798;SDS011;70933;44.692;37.776;2023-08-06T01:48:31;4.05;;;2.67;;
75798;SDS011;70933;44.692;37.776;2023-08-06T01:49:38;5.22;;;3.10;;
75798;SDS011;70933;44.692;37.776;2023-08-06T01:50:45;5.35;;;3.22;;
75798;SDS011;70933;44.692;37.776;2023-08-06T01:51:52;4.97;;;2.70;;
75798;SDS011;70933;44.692;37.776;2023-08-06T01:52:59;3.58;;;2.67;;
75798;SDS011;70933;44.692;37.776;2023-08-06T01:54:06;4.07;;;3.03;;
75798;SDS011;70933;44.692;37.776;2023-08-06T01:55:13;4.05;;;2.90;;
75798;SDS011;70933;44.692;37.776;2023-08-06T01:56:20;4.18;;;2.78;;
75798;SDS011;70933;44.692;37.776;2023-08-06T01:57:28;3.55;;;3.25;;
75798;SDS011;70933;44.692;37.776;2023-08-06T01:58:34;3.95;;;3.25;;
75798;SDS011;70933;44.692;37.776;2023-08-06T01:59:41;3.30;;;2.75;;
75798;SDS011;70933;44.692;37.776;2023-08-06T02:00:48;4.57;;;2.92;;
75798;SDS011;70933;44.692;37.776;2023-08-06T02:01:55;4.47;;;2.85;;
75798;SDS011;70933;44.692;37.776;2023-08-06T02:03:01;4.32;;;2.45;;
75798;SDS011;70933;44.692;37.776;2023-08-06T02:04:08;3.33;;;2.50;;
75798;SDS011;70933;44.692;37.776;2023-08-06T02:05:15;4.32;;;2.58;;
75798;SDS011;70933;44.692;37.776;2023-08-06T02:06:22;4.40;;;2.58;;
75798;SDS011;70933;44.692;37.776;2023-08-06T02:07:28;4.00;;;2.72;;
75798;SDS011;70933;44.692;37.776;2023-08-06T02:08:36;4.55;;;3.25;;
75798;SDS011;70933;44.692;37.776;2023-08-06T02:09:44;4.05;;;2.63;;
75798;SDS011;70933;44.692;37.776;2023-08-06T02:10:51;3.22;;;2.92;;
75798;SDS011;70933;44.692;37.776;2023-08-06T02:11:58;4.25;;;3.15;;
75798;SDS011;70933;44.692;37.776;2023-08-06T02:13:04;5.65;;;3.55;;
75798;SDS011;70933;44.692;37.776;2023-08-06T02:14:11;4.60;;;3.13;;
75798;SDS011;70933;44.692;37.776;2023-08-06T02:15:19;4.32;;;2.70;;
75798;SDS011;70933;44.692;37.776;2023-08-06T02:16:26;3.72;;;2.70;;
75798;SDS011;70933;44.692;37.776;2023-08-06T02:17:33;4.28;;;3.15;;
75798;SDS011;70933;44.692;37.776;2023-08-06T02:18:40;4.22;;;3.28;;
75798;SDS011;70933;44.692;37.776;2023-08-06T02:19:47;3.58;;;2.95;;
75798;SDS011;70933;44.692;37.776;2023-08-06T02:20:55;5.22;;;2.97;;
75798;SDS011;70933;44.692;37.776;2023-08-06T02:22:03;3.80;;;2.70;;
75798;SDS011;70933;44.692;37.776;2023-08-06T02:23:10;3.95;;;2.92;;
75798;SDS011;70933;44.692;37.776;2023-08-06T02:24:17;3.80;;;2.95;;
75798;SDS011;70933;44.692;37.776;2023-08-06T02:25:24;5.40;;;2.83;;
75798;SDS011;70933;44.692;37.776;2023-08-06T02:26:30;4.95;;;2.70;;
75798;SDS011;70933;44.692;37.776;2023-08-06T02:27:37;5.32;;;3.08;;
75798;SDS011;70933;44.692;37.776;2023-08-06T02:28:44;3.63;;;2.90;;
75798;SDS011;70933;44.692;37.776;2023-08-06T02:29:53;5.47;;;3.25;;
75798;SDS011;70933;44.692;37.776;2023-08-06T02:31:00;4.05;;;2.83;;
75798;SDS011;70933;44.692;37.776;2023-08-06T02:32:08;4.43;;;3.40;;
75798;SDS011;70933;44.692;37.776;2023-08-06T02:33:15;4.70;;;2.72;;
75798;SDS011;70933;44.692;37.776;2023-08-06T02:34:22;5.55;;;3.15;;
75798;SDS011;70933;44.692;37.776;2023-08-06T02:35:28;4.72;;;3.05;;
75798;SDS011;70933;44.692;37.776;2023-08-06T02:36:35;4.90;;;3.22;;
75798;SDS011;70933;44.692;37.776;2023-08-06T02:37:42;4.40;;;3.05;;
75798;SDS011;70933;44.692;37.776;2023-08-06T02:38:50;6.00;;;3.17;;
75798;SDS011;70933;44.692;37.776;2023-08-06T02:39:56;4.30;;;3.55;;
75798;SDS011;70933;44.692;37.776;2023-08-06T02:41:04;4.70;;;3.22;;
75798;SDS011;70933;44.692;37.776;2023-08-06T02:42:10;5.05;;;2.90;;
75798;SDS011;70933;44.692;37.776;2023-08-06T02:43:17;4.07;;;2.53;;
75798;SDS011;70933;44.692;37.776;2023-08-06T02:44:26;4.30;;;2.83;;
75798;SDS011;70933;44.692;37.776;2023-08-06T02:45:34;3.00;;;2.63;;
75798;SDS011;70933;44.692;37.776;2023-08-06T02:46:40;4.13;;;2.80;;
75798;SDS011;70933;44.692;37.776;2023-08-06T02:47:47;4.82;;;3.15;;
75798;SDS011;70933;44.692;37.776;2023-08-06T02:48:54;4.15;;;3.45;;
75798;SDS011;70933;44.692;37.776;2023-08-06T02:50:02;4.18;;;2.83;;
75798;SDS011;70933;44.692;37.776;2023-08-06T02:51:10;5.22;;;3.20;;
75798;SDS011;70933;44.692;37.776;2023-08-06T02:52:19;4.93;;;3.03;;
75798;SDS011;70933;44.692;37.776;2023-08-06T02:53:26;3.53;;;3.22;;
75798;SDS011;70933;44.692;37.776;2023-08-06T02:54:33;4.80;;;2.63;;
75798;SDS011;70933;44.692;37.776;2023-08-06T02:55:45;5.25;;;3.08;;
75798;SDS011;70933;44.692;37.776;2023-08-06T02:56:55;4.50;;;2.60;;
75798;SDS011;70933;44.692;37.776;2023-08-06T02:58:08;4.53;;;2.95;;
75798;SDS011;70933;44.692;37.776;2023-08-06T02:59:19;4.22;;;2.67;;
75798;SDS011;70933;44.692;37.776;2023-08-06T03:01:04;4.30;;;3.00;;
75798;SDS011;70933;44.692;37.776;2023-08-06T03:02:21;5.20;;;2.92;;
75798;SDS011;70933;44.692;37.776;2023-08-06T03:03:38;5.00;;;2.97;;
75798;SDS011;70933;44.692;37.776;2023-08-06T03:05:54;4.03;;;2.88;;
75798;SDS011;70933;44.692;37.776;2023-08-06T03:07:12;5.63;;;3.13;;
75798;SDS011;70933;44.692;37.776;2023-08-06T03:09:34;4.22;;;2.50;;
75798;SDS011;70933;44.692;37.776;2023-08-06T03:10:41;6.70;;;3.17;;
75798;SDS011;70933;44.692;37.776;2023-08-06T03:11:48;5.03;;;3.00;;
75798;SDS011;70933;44.692;37.776;2023-08-06T03:12:55;5.18;;;3.30;;
75798;SDS011;70933;44.692;37.776;2023-08-06T03:14:03;3.53;;;2.80;;
75798;SDS011;70933;44.692;37.776;2023-08-06T03:15:10;4.95;;;3.35;;
75798;SDS011;70933;44.692;37.776;2023-08-06T03:16:17;4.28;;;3.30;;
75798;SDS011;70933;44.692;37.776;2023-08-06T03:17:24;4.40;;;3.25;;
75798;SDS011;70933;44.692;37.776;2023-08-06T03:18:30;6.10;;;3.22;;
75798;SDS011;70933;44.692;37.776;2023-08-06T03:19:41;4.03;;;2.85;;
75798;SDS011;70933;44.692;37.776;2023-08-06T03:20:47;3.97;;;2.78;;
75798;SDS011;70933;44.692;37.776;2023-08-06T03:21:55;4.57;;;3.00;;
75798;SDS011;70933;44.692;37.776;2023-08-06T03:23:02;4.45;;;3.13;;
75798;SDS011;70933;44.692;37.776;2023-08-06T03:24:10;5.40;;;3.50;;
75798;SDS011;70933;44.692;37.776;2023-08-06T03:25:19;5.35;;;3.42;;
75798;SDS011;70933;44.692;37.776;2023-08-06T03:26:28;3.85;;;2.92;;
75798;SDS011;70933;44.692;37.776;2023-08-06T03:27:35;5.35;;;3.30;;
75798;SDS011;70933;44.692;37.776;2023-08-06T03:28:42;6.20;;;3.10;;
75798;SDS011;70933;44.692;37.776;2023-08-06T03:29:49;4.03;;;3.25;;
75798;SDS011;70933;44.692;37.776;2023-08-06T03:31:01;6.00;;;2.88;;
75798;SDS011;70933;44.692;37.776;2023-08-06T03:32:13;4.80;;;3.75;;
75798;SDS011;70933;44.692;37.776;2023-08-06T03:33:21;4.15;;;2.90;;
75798;SDS011;70933;44.692;37.776;2023-08-06T03:34:28;4.70;;;3.40;;
75798;SDS011;70933;44.692;37.776;2023-08-06T03:35:35;3.95;;;3.10;;
75798;SDS011;70933;44.692;37.776;2023-08-06T03:36:42;5.40;;;3.70;;
75798;SDS011;70933;44.692;37.776;2023-08-06T03:37:49;4.50;;;2.97;;
75798;SDS011;70933;44.692;37.776;2023-08-06T03:38:56;4.70;;;2.85;;
75798;SDS011;70933;44.692;37.776;2023-08-06T03:40:03;4.88;;;2.60;;
75798;SDS011;70933;44.692;37.776;2023-08-06T03:41:12;4.10;;;2.88;;
75798;SDS011;70933;44.692;37.776;2023-08-06T03:42:19;4.60;;;2.83;;
75798;SDS011;70933;44.692;37.776;2023-08-06T03:43:26;4.18;;;2.85;;
75798;SDS011;70933;44.692;37.776;2023-08-06T03:44:33;5.72;;;3.08;;
75798;SDS011;70933;44.692;37.776;2023-08-06T03:45:42;5.22;;;3.10;;
75798;SDS011;70933;44.692;37.776;2023-08-06T03:46:50;5.10;;;2.78;;
75798;SDS011;70933;44.692;37.776;2023-08-06T03:47:57;3.38;;;2.85;;
75798;SDS011;70933;44.692;37.776;2023-08-06T03:49:03;4.50;;;2.90;;
75798;SDS011;70933;44.692;37.776;2023-08-06T03:50:10;4.47;;;2.85;;
75798;SDS011;70933;44.692;37.776;2023-08-06T03:51:17;3.63;;;2.55;;
75798;SDS011;70933;44.692;37.776;2023-08-06T03:52:25;4.32;;;3.38;;
75798;SDS011;70933;44.692;37.776;2023-08-06T03:53:32;3.88;;;2.80;;
75798;SDS011;70933;44.692;37.776;2023-08-06T03:54:40;3.95;;;2.90;;
75798;SDS011;70933;44.692;37.776;2023-08-06T03:55:49;3.30;;;2.50;;
75798;SDS011;70933;44.692;37.776;2023-08-06T03:56:56;3.38;;;2.88;;
75798;SDS011;70933;44.692;37.776;2023-08-06T03:58:03;4.57;;;3.03;;
75798;SDS011;70933;44.692;37.776;2023-08-06T03:59:10;6.18;;;3.38;;
75798;SDS011;70933;44.692;37.776;2023-08-06T04:00:17;4.95;;;3.35;;
75798;SDS011;70933;44.692;37.776;2023-08-06T04:01:30;4.32;;;3.03;;
75798;SDS011;70933;44.692;37.776;2023-08-06T04:02:37;3.65;;;2.65;;
75798;SDS011;70933;44.692;37.776;2023-08-06T04:03:44;3.80;;;2.80;;
75798;SDS011;70933;44.692;37.776;2023-08-06T04:04:51;6.55;;;3.42;;
75798;SDS011;70933;44.692;37.776;2023-08-06T04:05:59;5.82;;;3.03;;
75798;SDS011;70933;44.692;37.776;2023-08-06T04:07:09;4.60;;;3.42;;
75798;SDS011;70933;44.692;37.776;2023-08-06T04:08:15;6.13;;;2.83;;
75798;SDS011;70933;44.692;37.776;2023-08-06T04:09:22;5.47;;;2.95;;
75798;SDS011;70933;44.692;37.776;2023-08-06T04:10:29;4.05;;;2.63;;
75798;SDS011;70933;44.692;37.776;2023-08-06T04:11:36;3.80;;;2.78;;
75798;SDS011;70933;44.692;37.776;2023-08-06T04:12:42;4.63;;;3.13;;
75798;SDS011;70933;44.692;37.776;2023-08-06T04:13:49;4.10;;;3.13;;
75798;SDS011;70933;44.692;37.776;2023-08-06T04:14:57;3.72;;;2.70;;
75798;SDS011;70933;44.692;37.776;2023-08-06T04:16:05;4.35;;;3.15;;
75798;SDS011;70933;44.692;37.776;2023-08-06T04:17:12;4.15;;;3.05;;
75798;SDS011;70933;44.692;37.776;2023-08-06T04:18:19;4.90;;;3.30;;
75798;SDS011;70933;44.692;37.776;2023-08-06T04:19:26;3.70;;;2.60;;
75798;SDS011;70933;44.692;37.776;2023-08-06T04:20:32;5.68;;;2.78;;
75798;SDS011;70933;44.692;37.776;2023-08-06T04:21:39;4.93;;;3.25;;
75798;SDS011;70933;44.692;37.776;2023-08-06T04:22:46;4.25;;;2.70;;
75798;SDS011;70933;44.692;37.776;2023-08-06T04:23:53;3.90;;;2.60;;
75798;SDS011;70933;44.692;37.776;2023-08-06T04:25:00;4.13;;;2.70;;
75798;SDS011;70933;44.692;37.776;2023-08-06T04:26:07;4.13;;;2.50;;
75798;SDS011;70933;44.692;37.776;2023-08-06T04:27:16;4.57;;;2.97;;
75798;SDS011;70933;44.692;37.776;2023-08-06T04:29:31;6.13;;;3.45;;
75798;SDS011;70933;44.692;37.776;2023-08-06T04:30:38;4.30;;;2.80;;
75798;SDS011;70933;44.692;37.776;2023-08-06T04:31:47;4.55;;;2.80;;
75798;SDS011;70933;44.692;37.776;2023-08-06T04:32:56;4.10;;;2.90;;
75798;SDS011;70933;44.692;37.776;2023-08-06T04:34:03;4.22;;;2.58;;
75798;SDS011;70933;44.692;37.776;2023-08-06T04:35:10;4.32;;;3.17;;
75798;SDS011;70933;44.692;37.776;2023-08-06T04:36:17;4.47;;;2.78;;
75798;SDS011;70933;44.692;37.776;2023-08-06T04:37:25;4.03;;;2.63;;
75798;SDS011;70933;44.692;37.776;2023-08-06T04:38:31;7.07;;;3.30;;
75798;SDS011;70933;44.692;37.776;2023-08-06T04:39:38;4.75;;;2.97;;
75798;SDS011;70933;44.692;37.776;2023-08-06T04:40:45;6.03;;;3.05;;
75798;SDS011;70933;44.692;37.776;2023-08-06T04:41:52;4.88;;;3.05;;
75798;SDS011;70933;44.692;37.776;2023-08-06T04:42:58;4.57;;;3.10;;
75798;SDS011;70933;44.692;37.776;2023-08-06T04:44:08;4.13;;;3.28;;
75798;SDS011;70933;44.692;37.776;2023-08-06T04:45:14;4.82;;;3.15;;
75798;SDS011;70933;44.692;37.776;2023-08-06T04:46:21;3.28;;;2.88;;
75798;SDS011;70933;44.692;37.776;2023-08-06T04:47:28;5.90;;;3.10;;
75798;SDS011;70933;44.692;37.776;2023-08-06T04:48:35;4.97;;;2.88;;
75798;SDS011;70933;44.692;37.776;2023-08-06T04:49:42;4.65;;;3.00;;
75798;SDS011;70933;44.692;37.776;2023-08-06T04:50:49;4.05;;;2.97;;
75798;SDS011;70933;44.692;37.776;2023-08-06T04:51:56;5.93;;;3.13;;
75798;SDS011;70933;44.692;37.776;2023-08-06T04:53:03;4.47;;;2.83;;
75798;SDS011;70933;44.692;37.776;2023-08-06T04:54:10;5.78;;;3.10;;
75798;SDS011;70933;44.692;37.776;2023-08-06T04:55:16;4.75;;;2.78;;
75798;SDS011;70933;44.692;37.776;2023-08-06T04:56:23;4.93;;;2.97;;
75798;SDS011;70933;44.692;37.776;2023-08-06T04:57:30;4.00;;;2.70;;
75798;SDS011;70933;44.692;37.776;2023-08-06T04:58:37;4.30;;;2.88;;
75798;SDS011;70933;44.692;37.776;2023-08-06T04:59:43;5.13;;;3.45;;
75798;SDS011;70933;44.692;37.776;2023-08-06T05:00:50;4.43;;;3.05;;
75798;SDS011;70933;44.692;37.776;2023-08-06T05:01:57;3.85;;;3.15;;
75798;SDS011;70933;44.692;37.776;2023-08-06T05:03:04;5.10;;;2.88;;
75798;SDS011;70933;44.692;37.776;2023-08-06T05:04:11;5.53;;;2.85;;
75798;SDS011;70933;44.692;37.776;2023-08-06T05:05:18;5.82;;;2.63;;
75798;SDS011;70933;44.692;37.776;2023-08-06T05:06:25;5.47;;;3.97;;
75798;SDS011;70933;44.692;37.776;2023-08-06T05:07:31;5.40;;;2.53;;
75798;SDS011;70933;44.692;37.776;2023-08-06T05:08:38;3.60;;;2.22;;
75798;SDS011;70933;44.692;37.776;2023-08-06T05:09:45;5.10;;;3.10;;
75798;SDS011;70933;44.692;37.776;2023-08-06T05:10:52;4.88;;;2.65;;
75798;SDS011;70933;44.692;37.776;2023-08-06T05:12:01;4.60;;;2.80;;
75798;SDS011;70933;44.692;37.776;2023-08-06T05:13:08;4.55;;;3.10;;
75798;SDS011;70933;44.692;37.776;2023-08-06T05:14:15;4.13;;;2.78;;
75798;SDS011;70933;44.692;37.776;2023-08-06T05:15:22;3.80;;;2.97;;
75798;SDS011;70933;44.692;37.776;2023-08-06T05:16:31;3.65;;;2.45;;
75798;SDS011;70933;44.692;37.776;2023-08-06T05:17:38;5.07;;;2.53;;
75798;SDS011;70933;44.692;37.776;2023-08-06T05:18:44;3.88;;;2.63;;
75798;SDS011;70933;44.692;37.776;2023-08-06T05:19:51;3.92;;;3.05;;
75798;SDS011;70933;44.692;37.776;2023-08-06T05:20:58;4.22;;;2.80;;
75798;SDS011;70933;44.692;37.776;2023-08-06T05:22:05;4.72;;;2.88;;
75798;SDS011;70933;44.692;37.776;2023-08-06T05:23:11;4.90;;;2.92;;
75798;SDS011;70933;44.692;37.776;2023-08-06T05:24:19;3.42;;;2.25;;
75798;SDS011;70933;44.692;37.776;2023-08-06T05:25:25;4.00;;;2.10;;
75798;SDS011;70933;44.692;37.776;2023-08-06T05:26:32;5.30;;;3.05;;
75798;SDS011;70933;44.692;37.776;2023-08-06T05:27:39;4.60;;;2.80;;
75798;SDS011;70933;44.692;37.776;2023-08-06T05:28:46;3.50;;;2.63;;
75798;SDS011;70933;44.692;37.776;2023-08-06T05:29:54;4.50;;;2.08;;
75798;SDS011;70933;44.692;37.776;2023-08-06T05:31:03;4.50;;;2.70;;
75798;SDS011;70933;44.692;37.776;2023-08-06T05:32:10;4.63;;;3.88;;
75798;SDS011;70933;44.692;37.776;2023-08-06T05:33:18;4.22;;;2.63;;
75798;SDS011;70933;44.692;37.776;2023-08-06T05:34:25;4.22;;;2.92;;
75798;SDS011;70933;44.692;37.776;2023-08-06T05:35:31;3.60;;;2.67;;
75798;SDS011;70933;44.692;37.776;2023-08-06T05:36:38;3.63;;;2.50;;
75798;SDS011;70933;44.692;37.776;2023-08-06T05:37:45;3.78;;;2.38;;
75798;SDS011;70933;44.692;37.776;2023-08-06T05:38:52;3.95;;;2.40;;
75798;SDS011;70933;44.692;37.776;2023-08-06T05:39:58;4.70;;;2.97;;
75798;SDS011;70933;44.692;37.776;2023-08-06T05:41:05;5.72;;;2.58;;
75798;SDS011;70933;44.692;37.776;2023-08-06T05:42:12;3.65;;;2.50;;
75798;SDS011;70933;44.692;37.776;2023-08-06T05:43:19;4.82;;;3.28;;
75798;SDS011;70933;44.692;37.776;2023-08-06T05:44:26;5.43;;;2.75;;
75798;SDS011;70933;44.692;37.776;2023-08-06T05:45:33;4.38;;;2.90;;
75798;SDS011;70933;44.692;37.776;2023-08-06T05:46:40;5.07;;;2.40;;
75798;SDS011;70933;44.692;37.776;2023-08-06T05:47:49;3.42;;;2.08;;
75798;SDS011;70933;44.692;37.776;2023-08-06T05:48:56;3.75;;;2.45;;
75798;SDS011;70933;44.692;37.776;2023-08-06T05:50:03;4.13;;;2.35;;
75798;SDS011;70933;44.692;37.776;2023-08-06T05:51:10;2.88;;;2.17;;
75798;SDS011;70933;44.692;37.776;2023-08-06T05:52:19;3.40;;;2.47;;
75798;SDS011;70933;44.692;37.776;2023-08-06T05:53:26;4.70;;;2.22;;
75798;SDS011;70933;44.692;37.776;2023-08-06T05:54:32;4.03;;;2.25;;
75798;SDS011;70933;44.692;37.776;2023-08-06T05:55:39;5.68;;;2.38;;
75798;SDS011;70933;44.692;37.776;2023-08-06T05:56:46;3.22;;;2.20;;
75798;SDS011;70933;44.692;37.776;2023-08-06T05:57:53;3.63;;;1.80;;
75798;SDS011;70933;44.692;37.776;2023-08-06T05:58:59;3.17;;;2.25;;
75798;SDS011;70933;44.692;37.776;2023-08-06T06:00:07;4.03;;;2.25;;
75798;SDS011;70933;44.692;37.776;2023-08-06T06:01:18;3.10;;;2.13;;
75798;SDS011;70933;44.692;37.776;2023-08-06T06:02:26;4.35;;;1.95;;
75798;SDS011;70933;44.692;37.776;2023-08-06T06:03:32;3.83;;;2.20;;
75798;SDS011;70933;44.692;37.776;2023-08-06T06:04:40;3.38;;;1.90;;
75798;SDS011;70933;44.692;37.776;2023-08-06T06:05:47;3.25;;;1.83;;
75798;SDS011;70933;44.692;37.776;2023-08-06T06:06:53;2.63;;;1.70;;
75798;SDS011;70933;44.692;37.776;2023-08-06T06:08:00;4.85;;;2.13;;
75798;SDS011;70933;44.692;37.776;2023-08-06T06:09:07;3.00;;;2.03;;
75798;SDS011;70933;44.692;37.776;2023-08-06T06:10:13;2.83;;;2.00;;
75798;SDS011;70933;44.692;37.776;2023-08-06T06:11:20;3.13;;;2.05;;
75798;SDS011;70933;44.692;37.776;2023-08-06T06:12:28;3.67;;;1.95;;
75798;SDS011;70933;44.692;37.776;2023-08-06T06:13:35;4.22;;;2.17;;
75798;SDS011;70933;44.692;37.776;2023-08-06T06:14:41;2.78;;;2.17;;
75798;SDS011;70933;44.692;37.776;2023-08-06T06:15:48;3.40;;;2.38;;
75798;SDS011;70933;44.692;37.776;2023-08-06T06:16:55;3.67;;;1.95;;
75798;SDS011;70933;44.692;37.776;2023-08-06T06:18:01;5.07;;;2.45;;
75798;SDS011;70933;44.692;37.776;2023-08-06T06:19:08;2.83;;;1.95;;
75798;SDS011;70933;44.692;37.776;2023-08-06T06:20:15;2.75;;;1.65;;
75798;SDS011;70933;44.692;37.776;2023-08-06T06:21:22;3.03;;;1.80;;
75798;SDS011;70933;44.692;37.776;2023-08-06T06:22:29;4.07;;;2.17;;
75798;SDS011;70933;44.692;37.776;2023-08-06T06:23:36;4.57;;;1.83;;
75798;SDS011;70933;44.692;37.776;2023-08-06T06:24:42;2.90;;;1.90;;
75798;SDS011;70933;44.692;37.776;2023-08-06T06:25:49;3.33;;;2.13;;
75798;SDS011;70933;44.692;37.776;2023-08-06T06:26:57;4.80;;;2.38;;
75798;SDS011;70933;44.692;37.776;2023-08-06T06:28:05;5.10;;;2.15;;
75798;SDS011;70933;44.692;37.776;2023-08-06T06:29:11;2.60;;;1.92;;
75798;SDS011;70933;44.692;37.776;2023-08-06T06:30:18;3.42;;;2.03;;
75798;SDS011;70933;44.692;37.776;2023-08-06T06:31:25;2.78;;;1.63;;
75798;SDS011;70933;44.692;37.776;2023-08-06T06:32:31;4.22;;;2.35;;
75798;SDS011;70933;44.692;37.776;2023-08-06T06:33:38;4.70;;;2.10;;
75798;SDS011;70933;44.692;37.776;2023-08-06T06:34:45;3.40;;;1.77;;
75798;SDS011;70933;44.692;37.776;2023-08-06T06:35:52;3.42;;;2.03;;
75798;SDS011;70933;44.692;37.776;2023-08-06T06:36:59;3.47;;;1.98;;
75798;SDS011;70933;44.692;37.776;2023-08-06T06:38:05;4.72;;;2.10;;
75798;SDS011;70933;44.692;37.776;2023-08-06T06:39:12;4.80;;;1.85;;
75798;SDS011;70933;44.692;37.776;2023-08-06T06:40:19;3.28;;;2.10;;
75798;SDS011;70933;44.692;37.776;2023-08-06T06:41:26;4.40;;;1.95;;
75798;SDS011;70933;44.692;37.776;2023-08-06T06:42:32;2.90;;;2.00;;
75798;SDS011;70933;44.692;37.776;2023-08-06T06:43:41;3.38;;;1.77;;
75798;SDS011;70933;44.692;37.776;2023-08-06T06:44:48;2.50;;;1.50;;
75798;SDS011;70933;44.692;37.776;2023-08-06T06:45:56;3.50;;;2.10;;
75798;SDS011;70933;44.692;37.776;2023-08-06T06:47:06;4.13;;;2.63;;
75798;SDS011;70933;44.692;37.776;2023-08-06T06:48:13;3.97;;;1.77;;
75798;SDS011;70933;44.692;37.776;2023-08-06T06:49:19;3.08;;;1.52;;
75798;SDS011;70933;44.692;37.776;2023-08-06T06:50:26;2.90;;;2.20;;
75798;SDS011;70933;44.692;37.776;2023-08-06T06:51:33;3.10;;;1.77;;